createdAt,value
2023-05-10T00:00:20.693Z,29.43
2023-05-10T00:01:20.698Z,29.43
2023-05-10T00:02:20.743Z,29.43
2023-05-10T00:03:20.798Z,29.42
2023-05-10T00:04:20.818Z,29.43
2023-05-10T00:05:20.741Z,29.45
2023-05-10T00:06:20.694Z,29.43
2023-05-10T00:07:20.711Z,29.43
2023-05-10T00:08:20.697Z,29.43
2023-05-10T00:09:20.711Z,29.43
2023-05-10T00:10:20.686Z,29.43
2023-05-10T00:11:22.883Z,29.43
2023-05-10T00:12:20.724Z,29.45
2023-05-10T00:13:20.762Z,29.43
2023-05-10T00:14:20.662Z,29.45
2023-05-10T00:15:20.688Z,29.43
2023-05-10T00:16:20.752Z,29.42
2023-05-10T00:17:20.711Z,29.45
2023-05-10T00:18:20.667Z,29.45
2023-05-10T00:19:20.687Z,29.43
2023-05-10T00:20:20.684Z,29.45
2023-05-10T00:21:20.724Z,29.43
2023-05-10T00:22:20.661Z,29.43
2023-05-10T00:23:20.707Z,29.43
2023-05-10T00:24:20.698Z,29.42
2023-05-10T00:25:20.672Z,29.42
2023-05-10T00:26:20.660Z,29.43
2023-05-10T00:27:20.649Z,29.43
2023-05-10T00:28:20.714Z,29.42
2023-05-10T00:29:20.660Z,29.43
2023-05-10T00:30:20.676Z,29.43
2023-05-10T00:31:20.651Z,29.43
2023-05-10T00:32:20.819Z,29.43
2023-05-10T00:33:20.671Z,29.43
2023-05-10T00:34:20.646Z,29.43
2023-05-10T00:35:20.661Z,29.43
2023-05-10T00:36:20.677Z,29.42
2023-05-10T00:37:20.640Z,29.42
2023-05-10T00:38:20.671Z,29.43
2023-05-10T00:39:20.672Z,29.43
2023-05-10T00:40:20.689Z,29.45
2023-05-10T00:41:21.606Z,29.42
2023-05-10T00:42:20.680Z,29.43
2023-05-10T00:43:20.653Z,29.43
2023-05-10T00:44:20.666Z,29.45
2023-05-10T00:45:20.667Z,29.43
2023-05-10T00:46:20.659Z,29.43
2023-05-10T00:47:20.699Z,29.42
2023-05-10T00:48:20.650Z,29.45
2023-05-10T00:49:20.640Z,29.45
2023-05-10T00:50:20.642Z,29.42
2023-05-10T00:51:20.669Z,29.42
2023-05-10T00:52:20.691Z,29.42
2023-05-10T00:53:20.673Z,29.42
2023-05-10T00:54:20.675Z,29.43
2023-05-10T00:55:20.641Z,29.43
2023-05-10T00:56:20.655Z,29.40
2023-05-10T00:57:20.627Z,29.42
2023-05-10T00:58:20.657Z,29.45
2023-05-10T00:59:20.644Z,29.43
2023-05-10T01:00:20.630Z,29.42
2023-05-10T01:01:20.674Z,29.45
2023-05-10T01:02:20.702Z,29.43
2023-05-10T01:03:20.780Z,29.45
2023-05-10T01:04:20.696Z,29.45
2023-05-10T01:05:20.822Z,29.43
2023-05-10T01:06:20.647Z,29.43
2023-05-10T01:07:20.668Z,29.45
2023-05-10T01:08:20.694Z,29.40
2023-05-10T01:09:20.676Z,29.45
2023-05-10T01:10:20.657Z,29.45
2023-05-10T01:11:20.671Z,29.42
2023-05-10T01:12:20.701Z,29.45
2023-05-10T01:13:20.741Z,29.43
2023-05-10T01:14:20.642Z,29.43
2023-05-10T01:15:20.666Z,29.43
2023-05-10T01:16:20.709Z,29.42
2023-05-10T01:17:20.673Z,29.43
2023-05-10T01:18:20.660Z,29.45
2023-05-10T01:19:20.661Z,29.45
2023-05-10T01:20:20.666Z,29.40
2023-05-10T01:21:20.655Z,29.42
2023-05-10T01:22:20.672Z,29.43
2023-05-10T01:23:20.671Z,29.43
2023-05-10T01:24:20.684Z,29.43
2023-05-10T01:25:20.693Z,29.45
2023-05-10T01:26:20.696Z,29.43
2023-05-10T01:27:20.675Z,29.42
2023-05-10T01:28:20.664Z,29.43
2023-05-10T01:29:20.657Z,29.45
2023-05-10T01:31:20.800Z,29.43
2023-05-10T01:32:20.677Z,29.43
2023-05-10T01:33:20.703Z,29.43
2023-05-10T01:34:20.679Z,29.42
2023-05-10T01:35:20.688Z,29.43
2023-05-10T01:36:20.713Z,29.43
2023-05-10T01:37:20.681Z,29.40
2023-05-10T01:38:20.664Z,29.43
2023-05-10T01:39:20.687Z,29.40
2023-05-10T01:40:20.675Z,29.43
2023-05-10T01:41:20.702Z,29.42
2023-05-10T01:42:20.701Z,29.43
2023-05-10T01:43:20.807Z,29.42
2023-05-10T01:44:20.675Z,29.43
2023-05-10T01:45:20.732Z,29.43
2023-05-10T01:46:20.678Z,29.43
2023-05-10T01:47:20.677Z,29.42
2023-05-10T01:48:20.701Z,29.40
2023-05-10T01:49:20.664Z,29.43
2023-05-10T01:50:20.717Z,29.46
2023-05-10T01:51:20.668Z,29.43
2023-05-10T01:52:20.727Z,29.43
2023-05-10T01:53:20.694Z,29.43
2023-05-10T01:54:20.681Z,29.42
2023-05-10T01:55:20.691Z,29.43
2023-05-10T01:56:20.689Z,29.45
2023-05-10T01:57:20.690Z,29.42
2023-05-10T01:58:20.687Z,29.43
2023-05-10T01:59:20.725Z,29.43
2023-05-10T02:00:20.681Z,29.43
2023-05-10T02:01:20.773Z,29.43
2023-05-10T02:02:20.667Z,29.45
2023-05-10T02:03:20.736Z,29.43
2023-05-10T02:04:20.635Z,29.45
2023-05-10T02:05:20.648Z,29.45
2023-05-10T02:06:20.638Z,29.43
2023-05-10T02:07:20.642Z,29.42
2023-05-10T02:08:20.682Z,29.45
2023-05-10T02:09:20.663Z,29.43
2023-05-10T02:10:20.683Z,29.43
2023-05-10T02:11:20.657Z,29.42
2023-05-10T02:12:20.653Z,29.42
2023-05-10T02:13:20.751Z,29.42
2023-05-10T02:14:20.688Z,29.42
2023-05-10T02:15:20.662Z,29.43
2023-05-10T02:16:20.696Z,29.42
2023-05-10T02:17:20.636Z,29.43
2023-05-10T02:18:20.667Z,29.43
2023-05-10T02:19:20.672Z,29.45
2023-05-10T02:20:20.685Z,29.45
2023-05-10T02:21:20.649Z,29.43
2023-05-10T02:22:20.634Z,29.45
2023-05-10T02:23:20.657Z,29.42
2023-05-10T02:24:20.650Z,29.45
2023-05-10T02:25:20.653Z,29.45
2023-05-10T02:26:20.652Z,29.45
2023-05-10T02:27:20.645Z,29.43
2023-05-10T02:28:20.662Z,29.42
2023-05-10T02:29:20.740Z,29.43
2023-05-10T02:30:20.672Z,29.43
2023-05-10T02:31:20.704Z,29.43
2023-05-10T02:32:20.652Z,29.43
2023-05-10T02:33:20.653Z,29.42
2023-05-10T02:34:20.664Z,29.42
2023-05-10T02:35:20.698Z,29.43
2023-05-10T02:36:20.684Z,29.42
2023-05-10T02:37:20.681Z,29.42
2023-05-10T02:38:20.682Z,29.43
2023-05-10T02:39:20.670Z,29.43
2023-05-10T02:40:20.633Z,29.45
2023-05-10T02:41:20.640Z,29.46
2023-05-10T02:42:20.674Z,29.42
2023-05-10T02:43:20.645Z,29.46
2023-05-10T02:44:20.703Z,29.43
2023-05-10T02:45:20.656Z,29.45
2023-05-10T02:46:20.764Z,29.46
2023-05-10T02:47:20.714Z,29.45
2023-05-10T02:48:20.749Z,29.43
2023-05-10T02:49:20.700Z,29.46
2023-05-10T02:50:20.701Z,29.42
2023-05-10T02:51:20.701Z,29.45
2023-05-10T02:52:20.720Z,29.45
2023-05-10T02:53:20.711Z,29.45
2023-05-10T02:54:20.700Z,29.45
2023-05-10T02:55:20.712Z,29.46
2023-05-10T02:56:20.681Z,29.45
2023-05-10T02:57:20.707Z,29.45
2023-05-10T02:58:20.698Z,29.45
2023-05-10T02:59:20.722Z,29.45
2023-05-10T03:00:20.720Z,29.43
2023-05-10T03:01:20.772Z,29.43
2023-05-10T03:02:20.734Z,29.46
2023-05-10T03:03:20.731Z,29.45
2023-05-10T03:04:20.709Z,29.46
2023-05-10T03:05:20.742Z,29.43
2023-05-10T03:06:20.722Z,29.45
2023-05-10T03:07:20.715Z,29.43
2023-05-10T03:08:20.740Z,29.43
2023-05-10T03:09:20.709Z,29.46
2023-05-10T03:10:20.714Z,29.45
2023-05-10T03:11:20.726Z,29.46
2023-05-10T03:12:20.735Z,29.43
2023-05-10T03:13:20.795Z,29.46
2023-05-10T03:14:20.731Z,29.43
2023-05-10T03:15:20.756Z,29.43
2023-05-10T03:16:20.750Z,29.45
2023-05-10T03:17:20.740Z,29.45
2023-05-10T03:18:20.740Z,29.45
2023-05-10T03:19:20.727Z,29.46
2023-05-10T03:20:20.730Z,29.46
2023-05-10T03:21:20.753Z,29.43
2023-05-10T03:22:20.708Z,29.43
2023-05-10T03:23:20.711Z,29.43
2023-05-10T03:24:20.702Z,29.43
2023-05-10T03:25:20.752Z,29.45
2023-05-10T03:26:20.713Z,29.46
2023-05-10T03:27:20.738Z,29.45
2023-05-10T03:28:20.745Z,29.45
2023-05-10T03:29:20.718Z,29.43
2023-05-10T03:30:20.762Z,29.45
2023-05-10T03:31:20.743Z,29.46
2023-05-10T03:32:20.776Z,29.46
2023-05-10T03:33:20.745Z,29.45
2023-05-10T03:34:20.703Z,29.45
2023-05-10T03:35:20.773Z,29.45
2023-05-10T03:36:20.741Z,29.45
2023-05-10T03:37:20.766Z,29.45
2023-05-10T03:38:20.758Z,29.45
2023-05-10T03:39:20.730Z,29.43
2023-05-10T03:40:20.741Z,29.46
2023-05-10T03:41:20.727Z,29.46
2023-05-10T03:42:20.747Z,29.43
2023-05-10T03:43:20.736Z,29.46
2023-05-10T03:44:20.706Z,29.43
2023-05-10T03:45:20.704Z,29.46
2023-05-10T03:46:20.743Z,29.46
2023-05-10T03:47:20.748Z,29.45
2023-05-10T03:48:20.711Z,29.43
2023-05-10T03:49:20.706Z,29.43
2023-05-10T03:50:20.695Z,29.46
2023-05-10T03:51:20.709Z,29.45
2023-05-10T03:52:20.715Z,29.46
2023-05-10T03:53:20.707Z,29.46
2023-05-10T03:54:20.710Z,29.42
2023-05-10T03:55:20.725Z,29.48
2023-05-10T03:56:20.689Z,29.45
2023-05-10T03:57:20.687Z,29.46
2023-05-10T03:58:20.688Z,29.48
2023-05-10T03:59:20.701Z,29.46
2023-05-10T04:00:20.686Z,29.46
2023-05-10T04:01:20.717Z,29.46
2023-05-10T04:02:20.807Z,29.46
2023-05-10T04:03:20.801Z,29.46
2023-05-10T04:04:20.749Z,29.43
2023-05-10T04:05:20.680Z,29.43
2023-05-10T04:06:20.767Z,29.45
2023-05-10T04:07:20.678Z,29.42
2023-05-10T04:08:20.673Z,29.46
2023-05-10T04:09:20.669Z,29.46
2023-05-10T04:10:20.665Z,29.45
2023-05-10T04:11:20.652Z,29.45
2023-05-10T04:12:20.659Z,29.45
2023-05-10T04:13:20.791Z,29.45
2023-05-10T04:14:20.665Z,29.45
2023-05-10T04:15:20.662Z,29.42
2023-05-10T04:16:20.700Z,29.46
2023-05-10T04:17:20.693Z,29.46
2023-05-10T04:18:20.627Z,29.46
2023-05-10T04:19:20.621Z,29.48
2023-05-10T04:20:20.651Z,29.46
2023-05-10T04:21:20.642Z,29.46
2023-05-10T04:22:20.636Z,29.45
2023-05-10T04:23:20.670Z,29.46
2023-05-10T04:24:20.608Z,29.45
2023-05-10T04:25:20.676Z,29.45
2023-05-10T04:26:20.640Z,29.46
2023-05-10T04:27:20.623Z,29.45
2023-05-10T04:28:20.616Z,29.46
2023-05-10T04:29:20.623Z,29.46
2023-05-10T04:30:20.645Z,29.45
2023-05-10T04:31:20.727Z,29.46
2023-05-10T04:32:20.639Z,29.46
2023-05-10T04:33:20.646Z,29.46
2023-05-10T04:34:20.621Z,29.46
2023-05-10T04:35:20.645Z,29.43
2023-05-10T04:36:20.657Z,29.46
2023-05-10T04:37:20.606Z,29.46
2023-05-10T04:38:20.631Z,29.45
2023-05-10T04:39:20.630Z,29.46
2023-05-10T04:40:20.596Z,29.46
2023-05-10T04:41:20.586Z,29.46
2023-05-10T04:42:20.603Z,29.46
2023-05-10T04:43:20.660Z,29.45
2023-05-10T04:44:20.589Z,29.46
2023-05-10T04:45:20.595Z,29.48
2023-05-10T04:46:20.659Z,29.45
2023-05-10T04:47:20.642Z,29.46
2023-05-10T04:48:20.587Z,29.45
2023-05-10T04:49:20.602Z,29.48
2023-05-10T04:50:20.600Z,29.46
2023-05-10T04:51:20.587Z,29.46
2023-05-10T04:52:20.584Z,29.48
2023-05-10T04:53:20.592Z,29.48
2023-05-10T04:54:20.596Z,29.45
2023-05-10T04:55:20.734Z,29.45
2023-05-10T04:56:20.619Z,29.45
2023-05-10T04:57:20.609Z,29.48
2023-05-10T04:58:20.624Z,29.48
2023-05-10T04:59:20.620Z,29.46
2023-05-10T05:00:20.604Z,29.48
2023-05-10T05:01:20.640Z,29.49
2023-05-10T05:02:20.642Z,29.49
2023-05-10T05:03:20.754Z,29.46
2023-05-10T05:04:20.587Z,29.50
2023-05-10T05:05:20.595Z,29.45
2023-05-10T05:06:20.644Z,29.49
2023-05-10T05:07:20.588Z,29.46
2023-05-10T05:08:20.659Z,29.46
2023-05-10T05:09:20.608Z,29.46
2023-05-10T05:10:20.670Z,29.46
2023-05-10T05:11:20.598Z,29.49
2023-05-10T05:12:20.592Z,29.49
2023-05-10T05:13:20.654Z,29.46
2023-05-10T05:14:20.610Z,29.48
2023-05-10T05:15:20.605Z,29.48
2023-05-10T05:16:20.669Z,29.49
2023-05-10T05:17:20.616Z,29.50
2023-05-10T05:18:20.628Z,29.48
2023-05-10T05:19:20.624Z,29.49
2023-05-10T05:20:20.656Z,29.49
2023-05-10T05:21:20.599Z,29.48
2023-05-10T05:22:20.614Z,29.49
2023-05-10T05:23:20.583Z,29.48
2023-05-10T05:24:20.608Z,29.48
2023-05-10T05:25:20.624Z,29.49
2023-05-10T05:26:20.591Z,29.46
2023-05-10T05:27:20.576Z,29.49
2023-05-10T05:28:20.598Z,29.48
2023-05-10T05:29:20.610Z,29.49
2023-05-10T05:30:20.561Z,29.50
2023-05-10T05:31:20.613Z,29.49
2023-05-10T05:32:20.570Z,29.50
2023-05-10T05:33:20.554Z,29.48
2023-05-10T05:34:20.774Z,29.46
2023-05-10T05:35:20.582Z,29.43
2023-05-10T05:36:21.264Z,29.48
2023-05-10T05:37:20.585Z,29.49
2023-05-10T05:38:20.602Z,29.48
2023-05-10T05:39:20.729Z,29.37
2023-05-10T05:40:20.661Z,29.35
2023-05-10T05:41:20.685Z,29.33
2023-05-10T05:42:20.682Z,29.36
2023-05-10T05:43:20.727Z,29.19
2023-05-10T05:44:20.750Z,29.18
2023-05-10T05:45:20.786Z,29.09
2023-05-10T05:46:27.846Z,29.21
2023-05-10T05:47:20.759Z,29.22
2023-05-10T05:48:20.749Z,29.23
2023-05-10T05:49:20.892Z,29.23
2023-05-10T05:50:20.744Z,29.22
2023-05-10T05:51:20.774Z,29.23
2023-05-10T05:52:20.737Z,29.22
2023-05-10T05:53:20.746Z,29.22
2023-05-10T05:54:20.804Z,29.25
2023-05-10T05:55:20.774Z,29.22
2023-05-10T05:56:20.729Z,29.23
2023-05-10T05:57:20.729Z,29.26
2023-05-10T05:58:20.736Z,29.26
2023-05-10T05:59:20.785Z,29.22
2023-05-10T06:00:20.705Z,29.26
2023-05-10T06:01:20.654Z,29.26
2023-05-10T06:02:20.744Z,29.26
2023-05-10T06:03:20.989Z,29.28
2023-05-10T06:04:20.713Z,29.28
2023-05-10T06:05:20.660Z,29.25
2023-05-10T06:06:20.708Z,29.26
2023-05-10T06:07:20.655Z,29.28
2023-05-10T06:08:20.637Z,29.28
2023-05-10T06:09:20.798Z,29.28
2023-05-10T06:10:20.624Z,29.28
2023-05-10T06:11:20.618Z,29.29
2023-05-10T06:12:20.602Z,29.30
2023-05-10T06:13:20.651Z,29.29
2023-05-10T06:14:20.641Z,29.29
2023-05-10T06:15:20.599Z,29.28
2023-05-10T06:16:20.581Z,29.28
2023-05-10T06:17:20.619Z,29.29
2023-05-10T06:18:20.612Z,29.26
2023-05-10T06:19:20.567Z,29.25
2023-05-10T06:20:20.585Z,29.28
2023-05-10T06:21:20.537Z,29.25
2023-05-10T06:22:20.543Z,29.23
2023-05-10T06:23:20.508Z,29.25
2023-05-10T06:24:20.566Z,29.25
2023-05-10T06:25:20.564Z,29.26
2023-05-10T06:26:20.524Z,29.25
2023-05-10T06:27:20.517Z,29.29
2023-05-10T06:28:20.525Z,29.26
2023-05-10T06:29:20.534Z,29.25
2023-05-10T06:30:20.611Z,29.23
2023-05-10T06:31:20.726Z,29.26
2023-05-10T06:32:20.661Z,29.22
2023-05-10T06:33:20.679Z,29.26
2023-05-10T06:34:20.735Z,29.23
2023-05-10T06:35:20.740Z,29.25
2023-05-10T06:36:20.736Z,29.25
2023-05-10T06:37:20.797Z,29.23
2023-05-10T06:38:20.859Z,29.23
2023-05-10T06:39:20.869Z,29.23
2023-05-10T06:40:20.906Z,29.22
2023-05-10T06:41:22.529Z,29.21
2023-05-10T06:42:20.936Z,29.21
2023-05-10T06:43:20.893Z,29.19
2023-05-10T06:44:20.897Z,29.21
2023-05-10T06:45:21.113Z,29.19
2023-05-10T06:46:20.953Z,29.19
2023-05-10T06:47:20.884Z,29.18
2023-05-10T06:48:20.920Z,29.19
2023-05-10T06:49:20.873Z,29.16
2023-05-10T06:50:20.865Z,29.18
2023-05-10T06:51:20.846Z,29.15
2023-05-10T06:52:20.856Z,29.15
2023-05-10T06:53:20.860Z,29.16
2023-05-10T06:54:20.862Z,29.16
2023-05-10T06:55:20.827Z,29.19
2023-05-10T06:56:20.826Z,29.18
2023-05-10T06:57:31.128Z,29.21
2023-05-10T06:58:21.812Z,29.18
2023-05-10T06:59:21.406Z,29.16
2023-05-10T07:00:21.199Z,29.18
2023-05-10T07:01:20.857Z,29.18
2023-05-10T07:02:21.060Z,29.15
2023-05-10T07:03:20.795Z,29.16
2023-05-10T07:04:20.789Z,29.15
2023-05-10T07:05:21.142Z,29.16
2023-05-10T07:06:32.278Z,29.16
2023-05-10T07:07:21.771Z,29.13
2023-05-10T07:08:20.757Z,29.18
2023-05-10T07:09:20.703Z,29.16
2023-05-10T07:10:20.790Z,29.16
2023-05-10T07:11:20.727Z,29.12
2023-05-10T07:12:20.767Z,29.16
2023-05-10T07:13:20.794Z,29.15
2023-05-10T07:14:20.743Z,29.16
2023-05-10T07:15:20.704Z,29.16
2023-05-10T07:16:20.790Z,29.13
2023-05-10T07:17:20.685Z,29.15
2023-05-10T07:18:20.674Z,29.15
2023-05-10T07:19:20.758Z,29.15
2023-05-10T07:20:20.823Z,29.16
2023-05-10T07:21:20.682Z,29.16
2023-05-10T07:22:21.386Z,29.15
2023-05-10T07:23:20.690Z,29.15
2023-05-10T07:24:20.751Z,29.13
2023-05-10T07:25:20.786Z,29.15
2023-05-10T07:26:20.790Z,29.18
2023-05-10T07:27:20.831Z,29.19
2023-05-10T07:28:20.893Z,29.18
2023-05-10T07:29:20.909Z,29.15
2023-05-10T07:30:21.336Z,29.18
2023-05-10T07:31:21.010Z,29.18
2023-05-10T07:32:21.851Z,29.18
2023-05-10T07:33:21.050Z,29.16
2023-05-10T07:34:21.043Z,29.18
2023-05-10T07:35:21.324Z,29.16
2023-05-10T07:36:21.098Z,29.19
2023-05-10T07:37:21.147Z,29.18
2023-05-10T07:38:21.162Z,29.18
2023-05-10T07:39:26.685Z,29.18
2023-05-10T07:40:22.229Z,29.19
2023-05-10T07:41:21.203Z,29.18
2023-05-10T07:42:21.181Z,29.19
2023-05-10T07:43:21.185Z,29.16
2023-05-10T07:44:21.196Z,29.13
2023-05-10T07:45:21.169Z,29.15
2023-05-10T07:46:21.180Z,29.18
2023-05-10T07:47:21.188Z,29.18
2023-05-10T07:48:21.140Z,29.18
2023-05-10T07:49:21.171Z,29.18
2023-05-10T07:50:21.165Z,29.19
2023-05-10T07:51:21.147Z,29.19
2023-05-10T07:52:22.652Z,29.19
2023-05-10T07:53:21.083Z,29.19
2023-05-10T07:54:21.093Z,29.21
2023-05-10T07:55:21.116Z,29.21
2023-05-10T07:56:21.182Z,29.22
2023-05-10T07:57:21.180Z,29.23
2023-05-10T07:58:21.231Z,29.23
2023-05-10T07:59:21.248Z,29.25
2023-05-10T08:00:21.370Z,29.23
2023-05-10T08:01:21.288Z,29.25
2023-05-10T08:02:21.395Z,29.23
2023-05-10T08:03:21.452Z,29.25
2023-05-10T08:04:21.380Z,29.26
2023-05-10T08:05:21.443Z,29.22
2023-05-10T08:06:21.527Z,29.23
2023-05-10T08:07:21.493Z,29.22
2023-05-10T08:08:21.558Z,29.21
2023-05-10T08:09:21.559Z,29.23
2023-05-10T08:10:21.665Z,29.21
2023-05-10T08:11:21.614Z,29.16
2023-05-10T08:12:21.627Z,29.18
2023-05-10T08:13:21.701Z,29.18
2023-05-10T08:14:21.702Z,29.16
2023-05-10T08:15:21.746Z,29.13
2023-05-10T08:16:21.783Z,29.15
2023-05-10T08:17:22.833Z,29.12
2023-05-10T08:18:22.208Z,29.11
2023-05-10T08:19:21.781Z,29.11
2023-05-10T08:20:21.952Z,29.08
2023-05-10T08:21:21.760Z,29.09
2023-05-10T08:22:21.755Z,29.09
2023-05-10T08:23:21.752Z,29.09
2023-05-10T08:24:21.767Z,29.09
2023-05-10T08:25:21.746Z,29.05
2023-05-10T08:26:21.748Z,29.06
2023-05-10T08:27:21.789Z,28.79
2023-05-10T08:28:21.730Z,28.67
2023-05-10T08:29:21.721Z,28.40
2023-05-10T08:30:22.037Z,28.11
2023-05-10T08:31:21.747Z,27.95
2023-05-10T08:32:21.729Z,27.88
2023-05-10T08:33:21.732Z,27.88
2023-05-10T08:34:21.783Z,27.90
2023-05-10T08:35:21.817Z,27.79
2023-05-10T08:36:21.657Z,27.80
2023-05-10T08:37:21.674Z,27.80
2023-05-10T08:38:21.655Z,27.88
2023-05-10T08:39:29.792Z,27.95
2023-05-10T08:40:22.973Z,27.99
2023-05-10T08:41:21.693Z,28.07
2023-05-10T08:42:21.737Z,28.13
2023-05-10T08:43:21.645Z,28.21
2023-05-10T08:44:21.610Z,28.19
2023-05-10T08:45:21.865Z,28.33
2023-05-10T08:46:21.799Z,28.36
2023-05-10T08:47:21.763Z,28.46
2023-05-10T08:48:21.686Z,28.44
2023-05-10T08:49:21.596Z,28.54
2023-05-10T08:50:21.625Z,28.58
2023-05-10T08:51:21.609Z,28.60
2023-05-10T08:52:21.648Z,28.61
2023-05-10T08:53:21.721Z,28.64
2023-05-10T08:54:21.824Z,28.70
2023-05-10T08:55:21.850Z,28.72
2023-05-10T08:56:21.843Z,28.79
2023-05-10T08:57:21.853Z,28.82
2023-05-10T08:58:21.906Z,28.84
2023-05-10T08:59:21.948Z,28.88
2023-05-10T09:00:21.925Z,28.91
2023-05-10T09:01:22.039Z,28.94
2023-05-10T09:02:21.965Z,28.97
2023-05-10T09:03:21.993Z,29.02
2023-05-10T09:04:22.213Z,29.02
2023-05-10T09:05:22.076Z,29.02
2023-05-10T09:06:22.378Z,29.05
2023-05-10T09:07:22.151Z,29.05
2023-05-10T09:08:22.192Z,29.06
2023-05-10T09:09:22.180Z,29.09
2023-05-10T09:10:22.246Z,29.12
2023-05-10T09:11:22.245Z,29.13
2023-05-10T09:12:22.292Z,29.18
2023-05-10T09:13:22.336Z,29.11
2023-05-10T09:14:22.290Z,29.18
2023-05-10T09:15:22.289Z,29.18
2023-05-10T09:16:22.687Z,29.22
2023-05-10T09:17:22.497Z,29.19
2023-05-10T09:18:22.411Z,29.23
2023-05-10T09:19:22.355Z,29.25
2023-05-10T09:20:22.424Z,29.28
2023-05-10T09:21:22.386Z,29.28
2023-05-10T09:22:22.358Z,29.30
2023-05-10T09:23:22.787Z,29.30
2023-05-10T09:24:22.357Z,29.33
2023-05-10T09:25:22.412Z,29.33
2023-05-10T09:26:22.899Z,29.33
2023-05-10T09:27:22.380Z,29.37
2023-05-10T09:28:22.392Z,29.35
2023-05-10T09:29:22.384Z,29.37
2023-05-10T09:30:22.401Z,29.39
2023-05-10T09:31:23.680Z,29.37
2023-05-10T09:32:22.465Z,29.42
2023-05-10T09:33:22.413Z,29.42
2023-05-10T09:34:22.429Z,29.42
2023-05-10T09:35:22.426Z,29.42
2023-05-10T09:36:22.393Z,29.42
2023-05-10T09:37:22.445Z,29.45
2023-05-10T09:38:22.432Z,29.46
2023-05-10T09:39:22.384Z,29.46
2023-05-10T09:40:22.396Z,29.48
2023-05-10T09:41:22.917Z,29.46
2023-05-10T09:42:22.393Z,29.46
2023-05-10T09:43:22.411Z,29.49
2023-05-10T09:44:22.440Z,29.50
2023-05-10T09:45:22.443Z,29.50
2023-05-10T09:46:22.484Z,29.50
2023-05-10T09:47:22.454Z,29.54
2023-05-10T09:48:22.433Z,29.53
2023-05-10T09:49:22.461Z,29.54
2023-05-10T09:50:22.455Z,29.53
2023-05-10T09:51:22.898Z,29.53
2023-05-10T09:52:22.505Z,29.54
2023-05-10T09:53:22.491Z,29.54
2023-05-10T09:54:22.549Z,29.53
2023-05-10T09:55:22.639Z,29.54
2023-05-10T09:56:22.909Z,29.56
2023-05-10T09:57:22.543Z,29.54
2023-05-10T09:58:22.539Z,29.53
2023-05-10T09:59:22.530Z,29.52
2023-05-10T10:00:22.555Z,29.49
2023-05-10T10:01:22.606Z,29.46
2023-05-10T10:02:22.600Z,29.46
2023-05-10T10:03:22.592Z,29.46
2023-05-10T10:04:22.693Z,29.43
2023-05-10T10:05:22.649Z,29.42
2023-05-10T10:06:29.587Z,29.40
2023-05-10T10:07:23.680Z,29.37
2023-05-10T10:08:22.661Z,29.40
2023-05-10T10:09:22.707Z,29.39
2023-05-10T10:10:22.623Z,29.39
2023-05-10T10:11:22.888Z,29.39
2023-05-10T10:12:22.614Z,29.35
2023-05-10T10:13:22.612Z,29.35
2023-05-10T10:14:22.595Z,29.36
2023-05-10T10:15:22.983Z,29.37
2023-05-10T10:16:23.034Z,29.37
2023-05-10T10:17:22.586Z,29.36
2023-05-10T10:18:22.610Z,29.35
2023-05-10T10:19:22.590Z,29.36
2023-05-10T10:20:22.547Z,29.37
2023-05-10T10:21:22.568Z,29.36
2023-05-10T10:22:22.542Z,29.36
2023-05-10T10:23:22.547Z,29.33
2023-05-10T10:24:22.525Z,29.35
2023-05-10T10:25:22.537Z,29.33
2023-05-10T10:26:22.910Z,29.33
2023-05-10T10:27:22.506Z,29.32
2023-05-10T10:28:22.515Z,29.33
2023-05-10T10:29:22.528Z,29.33
2023-05-10T10:30:22.485Z,29.32
2023-05-10T10:31:22.564Z,29.32
2023-05-10T10:32:22.561Z,29.35
2023-05-10T10:33:28.432Z,29.32
2023-05-10T10:34:23.509Z,29.33
2023-05-10T10:35:22.502Z,29.32
2023-05-10T10:36:23.014Z,29.33
2023-05-10T10:37:22.541Z,29.35
2023-05-10T10:38:22.482Z,29.33
2023-05-10T10:39:22.496Z,29.33
2023-05-10T10:40:22.491Z,29.37
2023-05-10T10:41:22.910Z,29.35
2023-05-10T10:42:22.433Z,29.36
2023-05-10T10:43:22.451Z,29.33
2023-05-10T10:44:22.423Z,29.36
2023-05-10T10:45:22.424Z,29.37
2023-05-10T10:46:22.503Z,29.36
2023-05-10T10:47:22.566Z,29.29
2023-05-10T10:48:23.488Z,29.19
2023-05-10T10:49:22.437Z,29.28
2023-05-10T10:50:22.954Z,29.26
2023-05-10T10:51:22.396Z,29.28
2023-05-10T10:52:22.501Z,29.29
2023-05-10T10:53:22.401Z,29.29
2023-05-10T10:54:22.354Z,29.25
2023-05-10T10:55:22.361Z,29.25
2023-05-10T10:56:22.395Z,29.21
2023-05-10T10:57:22.450Z,29.23
2023-05-10T10:58:22.384Z,29.22
2023-05-10T10:59:22.339Z,29.22
2023-05-10T11:00:22.349Z,29.23
2023-05-10T11:01:22.471Z,29.21
2023-05-10T11:02:22.357Z,29.19
2023-05-10T11:03:22.350Z,29.09
2023-05-10T11:04:22.421Z,29.15
2023-05-10T11:05:22.413Z,29.08
2023-05-10T11:06:22.426Z,29.12
2023-05-10T11:07:22.998Z,29.13
2023-05-10T11:08:22.519Z,29.16
2023-05-10T11:09:22.528Z,29.15
2023-05-10T11:10:22.599Z,29.16
2023-05-10T11:11:22.585Z,29.15
2023-05-10T11:12:22.618Z,29.08
2023-05-10T11:13:22.663Z,29.15
2023-05-10T11:14:22.727Z,29.15
2023-05-10T11:15:22.749Z,29.18
2023-05-10T11:16:22.855Z,29.16
2023-05-10T11:17:22.786Z,29.19
2023-05-10T11:18:22.897Z,29.18
2023-05-10T11:19:22.882Z,29.19
2023-05-10T11:20:22.930Z,29.22
2023-05-10T11:21:22.945Z,29.19
2023-05-10T11:22:23.002Z,29.21
2023-05-10T11:23:23.087Z,29.19
2023-05-10T11:24:23.043Z,29.22
2023-05-10T11:25:23.941Z,29.21
2023-05-10T11:26:23.147Z,29.16
2023-05-10T11:27:23.452Z,29.03
2023-05-10T11:28:23.234Z,29.03
2023-05-10T11:29:23.174Z,29.08
2023-05-10T11:30:23.261Z,29.02
2023-05-10T11:31:23.318Z,29.08
2023-05-10T11:32:23.945Z,29.12
2023-05-10T11:33:23.310Z,29.12
2023-05-10T11:34:23.344Z,29.16
2023-05-10T11:35:23.400Z,29.13
2023-05-10T11:36:23.426Z,29.15
2023-05-10T11:37:23.946Z,29.18
2023-05-10T11:38:23.518Z,29.19
2023-05-10T11:39:23.570Z,29.21
2023-05-10T11:40:23.533Z,29.19
2023-05-10T11:41:23.591Z,29.22
2023-05-10T11:42:23.612Z,29.23
2023-05-10T11:43:23.606Z,29.26
2023-05-10T11:44:23.664Z,29.29
2023-05-10T11:45:23.662Z,29.29
2023-05-10T11:46:23.701Z,29.28
2023-05-10T11:47:23.725Z,29.28
2023-05-10T11:48:23.728Z,29.29
2023-05-10T11:49:23.753Z,29.29
2023-05-10T11:50:23.713Z,29.30
2023-05-10T11:51:23.772Z,29.32
2023-05-10T11:52:23.763Z,29.32
2023-05-10T11:53:25.777Z,29.35
2023-05-10T11:54:23.780Z,29.33
2023-05-10T11:55:23.779Z,29.33
2023-05-10T11:56:23.793Z,29.36
2023-05-10T11:57:23.858Z,29.35
2023-05-10T11:58:23.866Z,29.36
2023-05-10T11:59:23.844Z,29.35
2023-05-10T12:00:23.868Z,29.36
2023-05-10T12:01:23.828Z,29.37
2023-05-10T12:02:23.998Z,29.36
2023-05-10T12:03:24.011Z,29.35
2023-05-10T12:04:23.925Z,29.37
2023-05-10T12:05:23.914Z,29.37
2023-05-10T12:06:23.916Z,29.37
2023-05-10T12:07:23.958Z,29.37
2023-05-10T12:08:23.968Z,29.39
2023-05-10T12:10:23.947Z,29.37
2023-05-10T12:11:23.975Z,29.35
2023-05-10T12:12:23.975Z,29.36
2023-05-10T12:13:23.980Z,29.37
2023-05-10T12:14:23.929Z,29.36
2023-05-10T12:15:23.928Z,29.37
2023-05-10T12:16:23.930Z,29.37
2023-05-10T12:17:23.976Z,29.37
2023-05-10T12:18:23.930Z,29.37
2023-05-10T12:19:23.874Z,29.36
2023-05-10T12:20:23.900Z,29.37
2023-05-10T12:21:23.866Z,29.36
2023-05-10T12:22:23.861Z,29.35
2023-05-10T12:23:23.877Z,29.36
2023-05-10T12:24:23.831Z,29.37
2023-05-10T12:25:23.839Z,29.35
2023-05-10T12:26:23.852Z,29.37
2023-05-10T12:27:23.830Z,29.40
2023-05-10T12:28:23.864Z,29.36
2023-05-10T12:29:23.814Z,29.37
2023-05-10T12:30:23.788Z,29.37
2023-05-10T12:31:23.819Z,29.39
2023-05-10T12:32:23.817Z,29.36
2023-05-10T12:33:23.808Z,29.37
2023-05-10T12:34:23.784Z,29.39
2023-05-10T12:35:23.784Z,29.39
2023-05-10T12:36:23.754Z,29.39
2023-05-10T12:37:23.781Z,29.37
2023-05-10T12:38:23.756Z,29.37
2023-05-10T12:39:23.727Z,29.36
2023-05-10T12:40:23.742Z,29.36
2023-05-10T12:41:23.778Z,29.39
2023-05-10T12:42:23.709Z,29.36
2023-05-10T12:43:23.723Z,29.39
2023-05-10T12:44:23.735Z,29.39
2023-05-10T12:45:23.737Z,29.40
2023-05-10T12:46:23.820Z,29.40
2023-05-10T12:47:23.720Z,29.39
2023-05-10T12:48:23.728Z,29.37
2023-05-10T12:49:23.717Z,29.40
2023-05-10T12:50:23.697Z,29.39
2023-05-10T12:51:23.683Z,29.39
2023-05-10T12:52:23.661Z,29.36
2023-05-10T12:53:23.666Z,29.39
2023-05-10T12:54:23.649Z,29.36